Weather at Chaudhary Charan Singh International Airport

Public forecast

Using degrees Celsius for public forecast. Weather courtesy of forecast.io.

Current aviation weather report (METAR) for Chaudhary Charan Singh International Airport

2024/05/21 01:30 (retrieved 10 minutes ago)

VILK 210130Z 11007KT 5000 HZ NSC 28/19 Q1004 NOSIG

Closest aviation forecast (TAF) to Chaudhary Charan Singh International Airport

Forecast is more than 12 hours old.

Closest forecast is Bareilly Air Force Station, 125.7 nm (232.9 km) NW.

2024/05/20 12:00 (retrieved 14 hours ago)

TAF VIBY 200930Z 2012/2024 29008KT 6000 NSC TEMPO 2016/2018 FEW030TCU/CB FEW030 SCT100 BECMG2022/2024 5000 HZ FEW100